Terminal Aerodrome Forecast
Issued by NWS Cleveland, OH

Home | Current Version | Previous Version | Text Only | Print | Product List | Glossary Off
Versions: 1 2 3 4 5 6 7 8 9 10 11 12 13 14

000
FTUS41 KCLE 311131
TAFMFD
TAF
KMFD 311131Z 3112/0112 21005KT P6SM SKC
      TEMPO 3112/3113 5SM BR
     FM311500 24005KT P6SM SCT040
      TEMPO 3117/3121 BKN040
     FM010000 22003KT P6SM SKC=

USA.gov is the U.S. government's official web portal to all federal, state and local government web resources and services.